Time;durP1;ratioP1;P1;durP2;ratioP2;P2;SDS_P1;SDS_P2;PMS_P1;PMS_P2;Temp;Humidity;BMP_temperature;BMP_pressure;BME280_temperature;BME280_humidity;BME280_pressure;Samples;Min_cycle;Max_cycle;Signal;HPM_P1;HPM_P2
2022/12/03 00:01:35;;;;;;;36.53;18.98;;;;;;;;;;5058719;28;20040;-74
2022/12/03 00:04:00;;;;;;;36.47;18.60;;;;;;;;;;5058444;28;20044;-74
2022/12/03 00:06:26;;;;;;;40.80;18.50;;;;;;;;;;5058121;28;20024;-74
2022/12/03 00:08:51;;;;;;;36.97;18.48;;;;;;;;;;5057980;28;20057;-74
2022/12/03 00:11:16;;;;;;;41.67;19.90;;;;;;;;;;5058295;28;20029;-74
2022/12/03 00:13:42;;;;;;;44.35;19.70;;;;;;;;;;5058210;28;20058;-74
2022/12/03 00:16:07;;;;;;;43.38;20.88;;;;;;;;;;5058452;28;20084;-74
2022/12/03 00:18:36;;;;;;;43.65;21.17;;;;;;;;;;5059376;28;20269;-74
2022/12/03 00:21:01;;;;;;;47.08;20.77;;;;;;;;;;5058317;28;20020;-75
2022/12/03 00:23:27;;;;;;;45.08;21.13;;;;;;;;;;5058812;28;20021;-74
2022/12/03 00:25:52;;;;;;;44.55;20.17;;;;;;;;;;5059140;28;20024;-73
2022/12/03 00:28:18;;;;;;;42.75;20.13;;;;;;;;;;5058472;28;20025;-73
2022/12/03 00:30:43;;;;;;;42.08;20.42;;;;;;;;;;5058444;28;20025;-73
2022/12/03 00:33:08;;;;;;;40.92;19.63;;;;;;;;;;5059572;28;20027;-74
2022/12/03 00:35:34;;;;;;;38.60;19.75;;;;;;;;;;5059035;28;20077;-73
2022/12/03 00:37:59;;;;;;;38.17;19.92;;;;;;;;;;5059140;28;20128;-74
2022/12/03 00:40:25;;;;;;;42.33;20.13;;;;;;;;;;5058070;28;20075;-74
2022/12/03 00:42:50;;;;;;;42.00;20.65;;;;;;;;;;5058774;28;20121;-74
2022/12/03 00:45:15;;;;;;;41.38;21.30;;;;;;;;;;5057966;28;20052;-74
2022/12/03 00:47:41;;;;;;;44.50;21.33;;;;;;;;;;5057759;28;20029;-74
2022/12/03 00:50:07;;;;;;;39.38;20.05;;;;;;;;;;5059140;28;20084;-74
2022/12/03 00:52:32;;;;;;;40.85;20.20;;;;;;;;;;5058773;28;20205;-74
2022/12/03 00:54:57;;;;;;;41.28;20.13;;;;;;;;;;5056937;28;20048;-74
2022/12/03 00:57:23;;;;;;;42.03;19.73;;;;;;;;;;5058649;28;20033;-73
2022/12/03 00:59:48;;;;;;;39.47;19.95;;;;;;;;;;5059118;28;20060;-74
2022/12/03 01:02:14;;;;;;;37.92;18.05;;;;;;;;;;5058103;28;20098;-74
2022/12/03 01:04:39;;;;;;;38.50;18.83;;;;;;;;;;5057996;28;20217;-75
2022/12/03 01:07:04;;;;;;;37.42;18.67;;;;;;;;;;5058071;28;20021;-75
2022/12/03 01:09:30;;;;;;;36.25;18.38;;;;;;;;;;5058274;28;20342;-76
2022/12/03 01:11:55;;;;;;;37.38;18.50;;;;;;;;;;5056384;28;20029;-75
2022/12/03 01:14:21;;;;;;;36.35;18.27;;;;;;;;;;5058914;28;20240;-75
2022/12/03 01:16:47;;;;;;;41.65;19.13;;;;;;;;;;5058822;28;20032;-74
2022/12/03 01:19:16;;;;;;;39.67;19.20;;;;;;;;;;5058018;28;20013;-75
2022/12/03 01:21:47;;;;;;;37.33;18.25;;;;;;;;;;5056972;28;20036;-75
2022/12/03 01:24:13;;;;;;;32.85;17.45;;;;;;;;;;5058206;28;20021;-75
2022/12/03 01:26:39;;;;;;;34.25;18.75;;;;;;;;;;5056245;28;20497;-75
2022/12/03 01:29:05;;;;;;;37.90;17.85;;;;;;;;;;5058118;28;20469;-75
2022/12/03 01:34:14;;;;;;;38.08;19.35;;;;;;;;;;5057811;28;20039;-74
2022/12/03 01:36:40;;;;;;;39.33;19.25;;;;;;;;;;5057305;28;20025;-74
2022/12/03 01:39:05;;;;;;;36.60;18.80;;;;;;;;;;5055950;28;20028;-74
2022/12/03 01:41:32;;;;;;;37.42;18.05;;;;;;;;;;5058346;28;20043;-74
2022/12/03 01:43:58;;;;;;;39.22;19.15;;;;;;;;;;5057827;28;20037;-74
2022/12/03 01:46:38;;;;;;;37.35;18.52;;;;;;;;;;5057253;28;20059;-76
2022/12/03 01:49:03;;;;;;;39.58;19.77;;;;;;;;;;5057312;28;20089;-75
2022/12/03 01:51:29;;;;;;;39.65;19.13;;;;;;;;;;5057027;28;20041;-75
2022/12/03 01:53:55;;;;;;;40.45;19.90;;;;;;;;;;5057864;28;20422;-75
2022/12/03 01:56:20;;;;;;;40.42;19.83;;;;;;;;;;5058443;28;20031;-75
2022/12/03 01:58:46;;;;;;;36.88;19.20;;;;;;;;;;5058342;28;20035;-75
2022/12/03 02:01:17;;;;;;;39.60;19.70;;;;;;;;;;5058497;28;20033;-75
2022/12/03 02:03:44;;;;;;;41.63;18.95;;;;;;;;;;5057478;28;20033;-75
2022/12/03 02:06:21;;;;;;;37.25;18.52;;;;;;;;;;5058383;28;20033;-75
2022/12/03 02:08:47;;;;;;;35.50;17.95;;;;;;;;;;5058219;28;20034;-75
2022/12/03 02:11:28;;;;;;;39.60;18.90;;;;;;;;;;5057807;28;20036;-75
2022/12/03 02:13:55;;;;;;;;;;;;;;;;;;5057438;28;20112;-74
2022/12/03 02:16:21;;;;;;;36.22;18.15;;;;;;;;;;5056647;28;20227;-75
2022/12/03 02:18:47;;;;;;;39.58;18.98;;;;;;;;;;5056732;28;20025;-74
2022/12/03 02:21:36;;;;;;;36.20;18.75;;;;;;;;;;5056428;28;20372;-74
2022/12/03 02:24:19;;;;;;;36.17;17.75;;;;;;;;;;5057467;28;20032;-75
2022/12/03 02:26:45;;;;;;;35.22;17.92;;;;;;;;;;5058139;28;20102;-74
2022/12/03 02:29:10;;;;;;;35.67;18.52;;;;;;;;;;5056324;28;20033;-75
2022/12/03 02:31:36;;;;;;;37.90;18.45;;;;;;;;;;5056857;28;20055;-75
2022/12/03 02:34:05;;;;;;;38.63;18.15;;;;;;;;;;5060322;28;20021;-75
2022/12/03 02:36:31;;;;;;;35.47;18.23;;;;;;;;;;5060020;28;20410;-75
2022/12/03 02:38:56;;;;;;;34.50;17.88;;;;;;;;;;5059797;28;20055;-74
2022/12/03 02:44:07;;;;;;;33.80;17.42;;;;;;;;;;5060382;28;20065;-74
2022/12/03 02:46:33;;;;;;;34.10;18.20;;;;;;;;;;5060950;28;20021;-74
2022/12/03 02:48:59;;;;;;;34.90;18.13;;;;;;;;;;5060325;28;20266;-74
2022/12/03 02:51:25;;;;;;;37.13;18.13;;;;;;;;;;5057416;28;20073;-74
2022/12/03 02:53:52;;;;;;;33.83;17.60;;;;;;;;;;5060213;28;20073;-74
2022/12/03 02:56:23;;;;;;;37.60;18.00;;;;;;;;;;5059942;28;20028;-74
2022/12/03 02:58:51;;;;;;;;;;;;;;;;;;5059911;28;20605;-73
2022/12/03 03:01:17;;;;;;;36.03;17.35;;;;;;;;;;5059190;28;19961;-74
2022/12/03 03:03:45;;;;;;;34.28;16.55;;;;;;;;;;5060000;28;20021;-73
2022/12/03 03:06:11;;;;;;;34.33;17.42;;;;;;;;;;5059690;28;20084;-74
2022/12/03 03:08:38;;;;;;;35.85;17.80;;;;;;;;;;5059867;28;20029;-74
2022/12/03 03:11:03;;;;;;;32.38;17.00;;;;;;;;;;5059604;28;20258;-73
2022/12/03 03:13:34;;;;;;;32.88;17.50;;;;;;;;;;5060838;28;20025;-73
2022/12/03 03:16:01;;;;;;;32.13;17.17;;;;;;;;;;5061085;28;20043;-74
2022/12/03 03:18:27;;;;;;;36.00;17.70;;;;;;;;;;5059693;28;20347;-74
2022/12/03 03:20:52;;;;;;;32.97;17.15;;;;;;;;;;5060910;28;20037;-74
2022/12/03 03:23:20;;;;;;;33.13;17.20;;;;;;;;;;5060882;28;20032;-73
2022/12/03 03:25:53;;;;;;;34.13;17.33;;;;;;;;;;5060854;28;20129;-73
2022/12/03 03:28:18;;;;;;;34.72;17.55;;;;;;;;;;5060744;28;20029;-74
2022/12/03 03:30:44;;;;;;;33.00;16.05;;;;;;;;;;5059664;28;20073;-74
2022/12/03 03:33:11;;;;;;;32.50;16.65;;;;;;;;;;5060638;28;20031;-73
2022/12/03 03:35:37;;;;;;;32.65;16.25;;;;;;;;;;5060050;28;20033;-73
2022/12/03 03:38:04;;;;;;;33.83;16.95;;;;;;;;;;5059739;28;20061;-73
2022/12/03 03:40:29;;;;;;;34.85;17.27;;;;;;;;;;5059546;28;20033;-73
2022/12/03 03:42:56;;;;;;;31.63;16.85;;;;;;;;;;5059480;28;20029;-73
2022/12/03 03:45:22;;;;;;;32.63;16.23;;;;;;;;;;5059458;28;20084;-73
2022/12/03 03:47:47;;;;;;;32.40;16.48;;;;;;;;;;5059331;28;20025;-74
2022/12/03 03:50:13;;;;;;;34.22;16.73;;;;;;;;;;5060245;28;20100;-73
2022/12/03 03:52:40;;;;;;;34.53;17.30;;;;;;;;;;5058562;28;20471;-74
2022/12/03 03:55:08;;;;;;;32.83;16.10;;;;;;;;;;5060013;28;20028;-73
2022/12/03 03:57:34;;;;;;;28.65;15.55;;;;;;;;;;5059246;28;20024;-74
2022/12/03 03:59:59;;;;;;;33.58;16.00;;;;;;;;;;5058764;28;20121;-74
2022/12/03 04:02:26;;;;;;;35.10;16.48;;;;;;;;;;5059071;28;20025;-74
2022/12/03 04:04:52;;;;;;;30.70;16.45;;;;;;;;;;5059507;28;20025;-74
2022/12/03 04:07:18;;;;;;;31.10;16.63;;;;;;;;;;5060397;28;20048;-74
2022/12/03 04:09:44;;;;;;;34.75;16.08;;;;;;;;;;5059959;28;20041;-74
2022/12/03 04:14:55;;;;;;;30.25;15.65;;;;;;;;;;5059995;28;20039;-74
2022/12/03 04:17:20;;;;;;;35.28;16.80;;;;;;;;;;5060095;28;20096;-73
2022/12/03 04:19:46;;;;;;;30.58;15.77;;;;;;;;;;5059851;28;20032;-74
2022/12/03 04:28:47;;;;;;;31.02;15.35;;;;;;;;;;5059975;28;20109;-73
2022/12/03 04:30:24;;;;;;;30.83;14.98;;;;;;;;;;5059619;28;20024;-74
2022/12/03 04:35:43;;;;;;;30.98;15.40;;;;;;;;;;5058887;28;20119;-74
2022/12/03 04:38:09;;;;;;;28.17;14.65;;;;;;;;;;5059484;28;20107;-74
2022/12/03 04:43:19;;;;;;;29.05;15.15;;;;;;;;;;5058738;28;20036;-74
2022/12/03 04:45:45;;;;;;;32.13;14.88;;;;;;;;;;5059229;28;20029;-74
2022/12/03 04:48:10;;;;;;;32.00;14.45;;;;;;;;;;5058062;28;20037;-74
2022/12/03 04:50:35;;;;;;;30.88;14.27;;;;;;;;;;5058386;28;20285;-74
2022/12/03 04:53:01;;;;;;;27.73;14.50;;;;;;;;;;5058813;28;20081;-74
2022/12/03 04:55:26;;;;;;;31.00;14.93;;;;;;;;;;5058733;28;20037;-74
2022/12/03 04:57:51;;;;;;;28.27;14.18;;;;;;;;;;5059318;28;20033;-73
2022/12/03 05:00:17;;;;;;;29.05;14.55;;;;;;;;;;5059273;28;20021;-73
2022/12/03 05:02:42;;;;;;;27.73;14.32;;;;;;;;;;5059154;28;20090;-74
2022/12/03 05:05:09;;;;;;;27.02;14.27;;;;;;;;;;5058701;28;20225;-74
2022/12/03 05:07:35;;;;;;;31.17;14.18;;;;;;;;;;5059249;28;20024;-73
2022/12/03 05:10:00;;;;;;;29.05;14.13;;;;;;;;;;5059541;28;20222;-74
2022/12/03 05:12:25;;;;;;;27.15;13.38;;;;;;;;;;5057905;28;20032;-73
2022/12/03 05:14:51;;;;;;;30.48;14.63;;;;;;;;;;5059048;28;20372;-73
2022/12/03 05:17:16;;;;;;;29.20;14.23;;;;;;;;;;5058659;28;20039;-73
2022/12/03 05:22:25;;;;;;;29.00;14.05;;;;;;;;;;5058972;28;20359;-73
2022/12/03 05:24:50;;;;;;;27.55;14.07;;;;;;;;;;5057146;28;20029;-73
2022/12/03 05:27:16;;;;;;;29.00;13.68;;;;;;;;;;5055745;28;20203;-73
2022/12/03 05:29:41;;;;;;;29.30;14.40;;;;;;;;;;5058151;28;20081;-73
2022/12/03 05:32:07;;;;;;;28.23;14.50;;;;;;;;;;5057885;28;20044;-73
2022/12/03 05:34:32;;;;;;;31.85;14.65;;;;;;;;;;5050005;28;20029;-73
2022/12/03 05:36:57;;;;;;;25.60;13.77;;;;;;;;;;5055688;28;20320;-73
2022/12/03 05:39:23;;;;;;;28.40;13.73;;;;;;;;;;5056319;28;20020;-73
2022/12/03 05:44:32;;;;;;;25.90;13.40;;;;;;;;;;5057130;28;20036;-73
2022/12/03 05:46:57;;;;;;;28.02;13.75;;;;;;;;;;5057036;28;20029;-73
2022/12/03 05:49:23;;;;;;;29.40;14.68;;;;;;;;;;5057615;28;20025;-73
2022/12/03 05:51:48;;;;;;;29.67;14.73;;;;;;;;;;5057092;28;20263;-73
2022/12/03 05:54:13;;;;;;;30.98;13.98;;;;;;;;;;5056766;28;20029;-72
2022/12/03 05:56:39;;;;;;;28.80;13.82;;;;;;;;;;5056807;28;20032;-74
2022/12/03 05:59:04;;;;;;;28.13;14.73;;;;;;;;;;5056784;28;20028;-73
2022/12/03 06:01:29;;;;;;;30.55;13.50;;;;;;;;;;5056834;28;20029;-74
2022/12/03 06:03:55;;;;;;;28.98;13.85;;;;;;;;;;5056896;28;20073;-73
2022/12/03 06:06:20;;;;;;;27.10;14.35;;;;;;;;;;5055709;28;20025;-74
2022/12/03 06:08:46;;;;;;;29.08;13.82;;;;;;;;;;5057653;28;20021;-74
2022/12/03 06:11:11;;;;;;;26.98;14.40;;;;;;;;;;5055621;28;20037;-73
2022/12/03 06:13:36;;;;;;;26.20;13.70;;;;;;;;;;5056983;28;20117;-74
2022/12/03 06:16:02;;;;;;;28.50;14.48;;;;;;;;;;5056267;28;20396;-73
2022/12/03 06:18:27;;;;;;;27.30;14.43;;;;;;;;;;5057172;28;20088;-73
2022/12/03 06:20:53;;;;;;;26.23;13.52;;;;;;;;;;5056291;28;20025;-73
2022/12/03 06:23:18;;;;;;;30.05;14.38;;;;;;;;;;5056605;28;20029;-73
2022/12/03 06:25:43;;;;;;;26.10;13.77;;;;;;;;;;5056714;28;20035;-73
2022/12/03 06:28:09;;;;;;;29.50;14.07;;;;;;;;;;5056756;28;20077;-74
2022/12/03 06:30:34;;;;;;;27.45;13.73;;;;;;;;;;5056074;28;20267;-74
2022/12/03 06:33:00;;;;;;;32.00;13.82;;;;;;;;;;5056175;28;20053;-74
2022/12/03 06:35:25;;;;;;;25.60;13.43;;;;;;;;;;5056051;28;20096;-73
2022/12/03 06:37:51;;;;;;;29.35;14.65;;;;;;;;;;5053165;28;20190;-74
2022/12/03 06:40:17;;;;;;;27.75;14.70;;;;;;;;;;5051661;28;20025;-75
2022/12/03 06:42:42;;;;;;;27.95;13.88;;;;;;;;;;5046469;28;20070;-75
2022/12/03 06:45:08;;;;;;;27.25;14.55;;;;;;;;;;5046525;28;20052;-75
2022/12/03 06:47:33;;;;;;;28.15;14.35;;;;;;;;;;5046562;28;20017;-75
2022/12/03 06:49:59;;;;;;;25.85;13.13;;;;;;;;;;5046078;28;20059;-75
2022/12/03 06:52:24;;;;;;;29.77;14.43;;;;;;;;;;5046173;28;20033;-75
2022/12/03 06:54:50;;;;;;;29.30;14.13;;;;;;;;;;5046387;28;20029;-76
2022/12/03 06:57:15;;;;;;;29.20;14.15;;;;;;;;;;5046213;28;20017;-76
2022/12/03 06:59:40;;;;;;;27.92;13.63;;;;;;;;;;5046261;28;20053;-76
2022/12/03 07:02:06;;;;;;;28.90;14.07;;;;;;;;;;5046302;28;20539;-76
2022/12/03 07:04:31;;;;;;;28.20;14.15;;;;;;;;;;5046219;28;20021;-76
2022/12/03 07:06:57;;;;;;;29.08;13.73;;;;;;;;;;5046177;28;20028;-75
2022/12/03 07:09:22;;;;;;;28.42;13.75;;;;;;;;;;5045870;28;20032;-74
2022/12/03 07:11:47;;;;;;;27.27;13.82;;;;;;;;;;5046175;28;20036;-75
2022/12/03 07:14:13;;;;;;;28.60;14.25;;;;;;;;;;5045939;28;20089;-75
2022/12/03 07:16:38;;;;;;;32.13;15.07;;;;;;;;;;5046269;28;20025;-75
2022/12/03 07:19:05;;;;;;;34.35;16.00;;;;;;;;;;5047221;28;20050;-75
2022/12/03 07:21:31;;;;;;;30.70;14.93;;;;;;;;;;5049516;28;20049;-74
2022/12/03 07:23:56;;;;;;;30.85;14.55;;;;;;;;;;5049382;28;20037;-75
2022/12/03 07:26:21;;;;;;;29.08;14.80;;;;;;;;;;5049323;28;20040;-74
2022/12/03 07:28:47;;;;;;;26.42;14.80;;;;;;;;;;5049249;28;20028;-74
2022/12/03 07:31:13;;;;;;;27.98;14.27;;;;;;;;;;5049377;28;20112;-74
2022/12/03 07:33:38;;;;;;;30.73;14.00;;;;;;;;;;5049240;28;20543;-75
2022/12/03 07:36:04;;;;;;;28.70;14.02;;;;;;;;;;5049329;28;20040;-74
2022/12/03 07:38:30;;;;;;;32.47;15.73;;;;;;;;;;5049361;28;20037;-75
2022/12/03 07:40:55;;;;;;;31.85;15.38;;;;;;;;;;5057446;28;20020;-83
2022/12/03 07:43:20;;;;;;;35.17;16.15;;;;;;;;;;5060494;28;20073;-79
2022/12/03 07:45:46;;;;;;;37.13;16.00;;;;;;;;;;5134666;27;20019;-72
2022/12/03 07:48:11;;;;;;;36.13;17.33;;;;;;;;;;5089956;27;20051;-73
2022/12/03 07:50:37;;;;;;;37.10;16.85;;;;;;;;;;5057427;28;20029;-75
2022/12/03 07:53:02;;;;;;;31.80;15.40;;;;;;;;;;5058680;28;20041;-77
2022/12/03 07:55:28;;;;;;;26.25;14.10;;;;;;;;;;5057680;28;20033;-80
2022/12/03 07:57:53;;;;;;;28.20;14.82;;;;;;;;;;5056345;28;20197;-74
2022/12/03 08:00:19;;;;;;;27.38;13.68;;;;;;;;;;5058551;28;20079;-79
2022/12/03 08:02:45;;;;;;;27.27;14.77;;;;;;;;;;5058527;28;20061;-81
2022/12/03 08:05:10;;;;;;;25.75;13.48;;;;;;;;;;5058232;28;20029;-79
2022/12/03 08:07:36;;;;;;;27.27;14.38;;;;;;;;;;5058212;28;20036;-83
2022/12/03 08:10:04;;;;;;;29.55;14.40;;;;;;;;;;5057945;28;20055;-79
2022/12/03 08:12:39;;;;;;;28.98;13.93;;;;;;;;;;5057453;28;20016;-77
2022/12/03 08:15:27;;;;;;;26.25;14.25;;;;;;;;;;5052637;27;20328;-78
2022/12/03 08:17:55;;;;;;;23.92;12.65;;;;;;;;;;5054695;28;20021;-80
2022/12/03 08:20:23;;;;;;;28.23;13.95;;;;;;;;;;5038878;28;20049;-77
2022/12/03 08:22:51;;;;;;;32.30;14.63;;;;;;;;;;5036412;28;20029;-77
2022/12/03 08:25:28;;;;;;;32.00;15.07;;;;;;;;;;5046452;28;20025;-77
2022/12/03 08:27:59;;;;;;;28.95;13.95;;;;;;;;;;5049045;28;20025;-75
2022/12/03 08:30:24;;;;;;;;;;;;;;;;;;5057939;28;20021;-76
2022/12/03 08:32:50;;;;;;;27.13;13.18;;;;;;;;;;5056261;28;19909;-75
2022/12/03 08:35:28;;;;;;;28.67;13.13;;;;;;;;;;5052676;28;20068;-75
2022/12/03 08:38:04;;;;;;;26.23;12.98;;;;;;;;;;5050029;28;20032;-76
2022/12/03 08:40:41;;;;;;;25.58;13.32;;;;;;;;;;5050685;28;20036;-75
2022/12/03 08:43:24;;;;;;;26.25;12.93;;;;;;;;;;5051455;27;20115;-76
2022/12/03 08:45:53;;;;;;;24.90;12.80;;;;;;;;;;5048966;28;20049;-76
2022/12/03 08:48:31;;;;;;;25.55;13.48;;;;;;;;;;5045858;28;20104;-75
2022/12/03 08:51:19;;;;;;;26.95;13.20;;;;;;;;;;5058393;28;20088;-77
2022/12/03 08:53:50;;;;;;;24.90;13.23;;;;;;;;;;5057749;27;20036;-77
2022/12/03 08:56:21;;;;;;;25.30;12.45;;;;;;;;;;5057598;28;20040;-77
2022/12/03 08:58:56;;;;;;;22.30;12.02;;;;;;;;;;5057559;28;20028;-77
2022/12/03 09:01:31;;;;;;;23.02;12.23;;;;;;;;;;5058283;28;20033;-78
2022/12/03 09:04:20;;;;;;;25.30;12.20;;;;;;;;;;5059014;28;20039;-79
2022/12/03 09:06:46;;;;;;;21.35;12.10;;;;;;;;;;5051283;27;20052;-77
2022/12/03 09:09:11;;;;;;;24.95;12.07;;;;;;;;;;5061484;28;20037;-78
2022/12/03 09:11:36;;;;;;;24.48;12.27;;;;;;;;;;5057225;28;20554;-79
2022/12/03 09:14:03;;;;;;;24.02;12.27;;;;;;;;;;5057640;28;20376;-77
2022/12/03 09:16:28;;;;;;;22.15;12.00;;;;;;;;;;5058246;28;20085;-79
2022/12/03 09:18:54;;;;;;;21.90;11.32;;;;;;;;;;5058018;28;20080;-78
2022/12/03 09:21:19;;;;;;;23.55;11.63;;;;;;;;;;5057120;28;20017;-79
2022/12/03 09:23:44;;;;;;;23.30;11.60;;;;;;;;;;5056046;28;20032;-80
2022/12/03 09:26:10;;;;;;;22.13;11.10;;;;;;;;;;5057003;28;20029;-73
2022/12/03 09:28:35;;;;;;;22.25;12.02;;;;;;;;;;5055025;28;21356;-80
2022/12/03 09:31:00;;;;;;;19.90;10.40;;;;;;;;;;5056153;28;20031;-82
2022/12/03 09:33:26;;;;;;;23.48;11.38;;;;;;;;;;5057212;28;20031;-81
2022/12/03 09:35:51;;;;;;;20.35;11.05;;;;;;;;;;5056745;28;20033;-80
2022/12/03 09:38:17;;;;;;;21.88;11.70;;;;;;;;;;5056938;28;20372;-81
2022/12/03 09:40:42;;;;;;;20.77;10.95;;;;;;;;;;5054910;28;20032;-80
2022/12/03 09:43:09;;;;;;;19.40;10.60;;;;;;;;;;5056464;28;20032;-78
2022/12/03 09:45:35;;;;;;;20.98;11.20;;;;;;;;;;5053148;28;20025;-78
2022/12/03 09:48:02;;;;;;;19.42;10.32;;;;;;;;;;5053086;28;20355;-72
2022/12/03 09:50:29;;;;;;;20.98;10.60;;;;;;;;;;5053858;28;20029;-72
2022/12/03 09:52:57;;;;;;;21.00;11.07;;;;;;;;;;5090835;27;20045;-74
2022/12/03 09:55:26;;;;;;;21.42;10.73;;;;;;;;;;5057694;28;20044;-71
2022/12/03 09:57:52;;;;;;;23.65;12.02;;;;;;;;;;5048467;27;20326;-68
2022/12/03 10:00:24;;;;;;;26.38;12.82;;;;;;;;;;5048054;28;20041;-76
2022/12/03 10:02:57;;;;;;;24.67;12.77;;;;;;;;;;5057670;28;20029;-80
2022/12/03 10:05:23;;;;;;;20.75;10.88;;;;;;;;;;5048930;28;20309;-76
2022/12/03 10:07:51;;;;;;;21.38;11.80;;;;;;;;;;5051941;28;20081;-76
2022/12/03 10:10:24;;;;;;;19.77;10.95;;;;;;;;;;5048139;28;20101;-76
2022/12/03 10:12:50;;;;;;;19.05;11.13;;;;;;;;;;5052817;28;20080;-77
2022/12/03 10:15:18;;;;;;;19.23;11.02;;;;;;;;;;5053201;28;20040;-76
2022/12/03 10:17:46;;;;;;;19.73;11.45;;;;;;;;;;5053199;28;20069;-77
2022/12/03 10:20:14;;;;;;;24.70;12.13;;;;;;;;;;5051285;28;20040;-76
2022/12/03 10:22:40;;;;;;;21.02;10.73;;;;;;;;;;5052461;28;20032;-76
2022/12/03 10:25:14;;;;;;;24.05;11.20;;;;;;;;;;5079867;27;20035;-77
2022/12/03 10:27:41;;;;;;;22.50;10.98;;;;;;;;;;5042086;27;20311;-78
2022/12/03 10:30:18;;;;;;;19.48;10.05;;;;;;;;;;5055026;28;20423;-79
2022/12/03 10:32:49;;;;;;;22.65;12.18;;;;;;;;;;5048943;28;20013;-73
2022/12/03 10:35:22;;;;;;;;;;;;;;;;;;5049514;28;20064;-72
2022/12/03 10:38:01;;;;;;;18.67;9.73;;;;;;;;;;5047028;28;20460;-78
2022/12/03 10:40:32;;;;;;;19.30;10.10;;;;;;;;;;5043557;27;20055;-78
2022/12/03 10:43:20;;;;;;;17.58;9.77;;;;;;;;;;5033144;28;20097;-77
2022/12/03 10:45:50;;;;;;;18.45;10.15;;;;;;;;;;5033182;27;20118;-78
2022/12/03 10:48:25;;;;;;;19.88;10.30;;;;;;;;;;5042747;28;20036;-77
2022/12/03 10:50:53;;;;;;;17.30;9.25;;;;;;;;;;5030720;28;20314;-75
2022/12/03 10:53:21;;;;;;;17.23;8.25;;;;;;;;;;5041361;28;20465;-73
2022/12/03 10:55:50;;;;;;;18.20;9.35;;;;;;;;;;5051914;28;20040;-74
2022/12/03 10:58:15;;;;;;;20.60;9.65;;;;;;;;;;5049676;28;20502;-75
2022/12/03 11:00:41;;;;;;;17.75;9.82;;;;;;;;;;5049039;28;20108;-74
2022/12/03 11:03:26;;;;;;;20.85;10.82;;;;;;;;;;5048645;28;20460;-74
2022/12/03 11:05:53;;;;;;;17.92;9.68;;;;;;;;;;5049085;28;20100;-75
2022/12/03 11:08:24;;;;;;;14.75;7.85;;;;;;;;;;5048945;28;20032;-74
2022/12/03 11:11:07;;;;;;;17.02;8.32;;;;;;;;;;5048654;28;20412;-75
2022/12/03 11:13:32;;;;;;;12.27;6.95;;;;;;;;;;5048137;28;20029;-79
2022/12/03 11:16:02;;;;;;;9.48;5.55;;;;;;;;;;5049327;28;20108;-77
2022/12/03 11:18:36;;;;;;;10.20;5.47;;;;;;;;;;5057866;28;20036;-75
2022/12/03 11:21:06;;;;;;;10.95;5.97;;;;;;;;;;5055173;28;20052;-77
2022/12/03 11:24:02;;;;;;;10.47;6.00;;;;;;;;;;5051924;28;20032;-74
2022/12/03 11:26:36;;;;;;;11.38;6.25;;;;;;;;;;5039983;28;20037;-81
2022/12/03 11:29:02;;;;;;;10.15;6.13;;;;;;;;;;5049875;28;20522;-77
2022/12/03 11:31:45;;;;;;;11.32;6.05;;;;;;;;;;5054244;28;20089;-72
2022/12/03 11:34:17;;;;;;;9.77;5.82;;;;;;;;;;5050177;28;20361;-74
2022/12/03 11:37:10;;;;;;;13.27;6.22;;;;;;;;;;5052277;28;20506;-77
2022/12/03 11:39:48;;;;;;;11.43;6.25;;;;;;;;;;5047756;27;20088;-76
2022/12/03 11:42:25;;;;;;;10.27;6.22;;;;;;;;;;5042246;28;20044;-74
2022/12/03 11:45:03;;;;;;;12.65;7.75;;;;;;;;;;5058904;28;20088;-75
2022/12/03 11:47:31;;;;;;;11.13;6.35;;;;;;;;;;5040642;28;20030;-76
2022/12/03 11:49:56;;;;;;;12.38;6.50;;;;;;;;;;5037237;28;20045;-74
2022/12/03 11:52:40;;;;;;;12.10;6.57;;;;;;;;;;5037558;28;20048;-75
2022/12/03 11:55:29;;;;;;;13.38;6.88;;;;;;;;;;5039129;28;20029;-74
2022/12/03 11:58:00;;;;;;;10.82;6.00;;;;;;;;;;5052437;28;20021;-74
2022/12/03 12:00:26;;;;;;;10.48;5.78;;;;;;;;;;5058083;28;20025;-74
2022/12/03 12:02:54;;;;;;;9.48;5.68;;;;;;;;;;5058181;28;20092;-74
2022/12/03 12:05:21;;;;;;;12.48;6.13;;;;;;;;;;5055819;28;20028;-75
2022/12/03 12:07:48;;;;;;;12.05;6.13;;;;;;;;;;5057440;28;20044;-75
2022/12/03 12:10:48;;;;;;;11.15;6.07;;;;;;;;;;5057764;28;20076;-76
2022/12/03 12:13:43;;;;;;;10.27;5.70;;;;;;;;;;5042162;28;20021;-74
2022/12/03 12:16:09;;;;;;;10.63;5.90;;;;;;;;;;5045083;28;20041;-80
2022/12/03 12:18:34;;;;;;;9.20;5.50;;;;;;;;;;5035142;28;20063;-75
2022/12/03 12:21:38;;;;;;;10.73;5.45;;;;;;;;;;5038296;28;20029;-74
2022/12/03 12:24:35;;;;;;;10.48;5.70;;;;;;;;;;5037845;28;20327;-81
2022/12/03 12:27:09;;;;;;;15.15;8.23;;;;;;;;;;5031758;28;20112;-77
2022/12/03 12:29:37;;;;;;;11.90;6.10;;;;;;;;;;5028029;28;20022;-75
2022/12/03 12:32:11;;;;;;;11.57;6.30;;;;;;;;;;5027769;28;20014;-75
2022/12/03 12:34:46;;;;;;;8.18;4.65;;;;;;;;;;5033670;28;20033;-73
2022/12/03 12:37:13;;;;;;;8.98;4.18;;;;;;;;;;5034335;28;20029;-74
2022/12/03 12:39:38;;;;;;;8.30;4.57;;;;;;;;;;5039851;28;20024;-83
2022/12/03 12:42:24;;;;;;;7.70;4.07;;;;;;;;;;5050974;28;20084;-74
2022/12/03 12:44:51;;;;;;;7.35;4.20;;;;;;;;;;5033528;28;20056;-74
2022/12/03 12:47:16;;;;;;;6.72;4.00;;;;;;;;;;5053990;28;20095;-74
2022/12/03 12:49:41;;;;;;;6.38;3.90;;;;;;;;;;5040696;28;20022;-74
2022/12/03 12:52:12;;;;;;;6.30;3.88;;;;;;;;;;5039054;28;20231;-75
2022/12/03 12:54:38;;;;;;;7.63;4.32;;;;;;;;;;5035111;28;20089;-75
2022/12/03 12:57:11;;;;;;;7.93;3.95;;;;;;;;;;5036738;28;20070;-75
2022/12/03 12:59:36;;;;;;;7.05;3.90;;;;;;;;;;5031066;28;20528;-75
2022/12/03 13:02:27;;;;;;;6.78;4.20;;;;;;;;;;5033657;28;20033;-75
2022/12/03 13:04:53;;;;;;;8.90;5.22;;;;;;;;;;5038037;28;20147;-75
2022/12/03 13:07:18;;;;;;;13.88;6.53;;;;;;;;;;5037928;28;20033;-75
2022/12/03 13:09:44;;;;;;;11.23;5.90;;;;;;;;;;5036276;28;20710;-75
2022/12/03 13:12:19;;;;;;;12.80;6.80;;;;;;;;;;5037661;28;20041;-76
2022/12/03 13:14:45;;;;;;;12.65;6.80;;;;;;;;;;5055604;28;20082;-75
2022/12/03 13:17:28;;;;;;;12.38;6.88;;;;;;;;;;5044845;28;20325;-72
2022/12/03 13:19:56;;;;;;;12.27;6.32;;;;;;;;;;5030800;28;20033;-76
2022/12/03 13:22:24;;;;;;;12.02;6.22;;;;;;;;;;5045646;28;20025;-74
2022/12/03 13:24:51;;;;;;;12.98;7.13;;;;;;;;;;5047561;28;20096;-77
2022/12/03 13:27:16;;;;;;;14.02;7.13;;;;;;;;;;5054331;28;20440;-74
2022/12/03 13:29:43;;;;;;;13.98;6.35;;;;;;;;;;5055646;28;20021;-73
2022/12/03 13:32:13;;;;;;;11.07;6.47;;;;;;;;;;5058478;28;20024;-72
2022/12/03 13:34:40;;;;;;;10.73;6.30;;;;;;;;;;5058610;28;20333;-75
2022/12/03 13:37:15;;;;;;;12.85;6.97;;;;;;;;;;5057887;28;20032;-75
2022/12/03 13:39:51;;;;;;;12.45;6.65;;;;;;;;;;5055301;28;20036;-77
2022/12/03 13:42:37;;;;;;;11.18;6.35;;;;;;;;;;5042891;28;20142;-75
2022/12/03 13:45:18;;;;;;;11.90;6.30;;;;;;;;;;5038666;28;20115;-75
2022/12/03 13:47:46;;;;;;;11.73;5.85;;;;;;;;;;5055453;28;20025;-85
2022/12/03 13:50:35;;;;;;;13.82;7.60;;;;;;;;;;5056685;28;20024;-77
2022/12/03 13:53:10;;;;;;;14.13;7.00;;;;;;;;;;5056088;28;20053;-78
2022/12/03 13:55:38;;;;;;;12.00;6.63;;;;;;;;;;5057624;27;20037;-82
2022/12/03 13:58:18;;;;;;;15.77;7.00;;;;;;;;;;5120749;27;20103;-82
2022/12/03 14:00:44;;;;;;;13.18;6.57;;;;;;;;;;5099683;27;20029;-83
2022/12/03 14:03:10;;;;;;;11.80;6.28;;;;;;;;;;5057790;28;20021;-82
2022/12/03 14:05:35;;;;;;;10.65;6.38;;;;;;;;;;5054696;28;20036;-82
2022/12/03 14:08:01;;;;;;;11.80;6.60;;;;;;;;;;5054657;27;20197;-82
2022/12/03 14:10:28;;;;;;;11.07;6.63;;;;;;;;;;5048541;28;20254;-81
2022/12/03 14:12:54;;;;;;;13.13;6.90;;;;;;;;;;5047443;28;20573;-79
2022/12/03 14:15:20;;;;;;;13.32;6.88;;;;;;;;;;5048774;28;20360;-82
2022/12/03 14:17:46;;;;;;;12.52;6.82;;;;;;;;;;5055046;28;20025;-80
2022/12/03 14:20:13;;;;;;;12.68;5.85;;;;;;;;;;5046335;28;20564;-78
2022/12/03 14:22:39;;;;;;;10.10;5.90;;;;;;;;;;5057276;28;20184;-78
2022/12/03 14:25:06;;;;;;;11.52;6.05;;;;;;;;;;5055824;28;20335;-78
2022/12/03 14:27:32;;;;;;;13.10;6.15;;;;;;;;;;5052149;28;20108;-80
2022/12/03 14:30:01;;;;;;;14.70;7.55;;;;;;;;;;5072809;27;20029;-81
2022/12/03 14:32:27;;;;;;;14.23;7.65;;;;;;;;;;5070559;27;20316;-78
2022/12/03 14:34:52;;;;;;;13.77;6.97;;;;;;;;;;5059653;28;20081;-76
2022/12/03 14:37:18;;;;;;;14.18;7.57;;;;;;;;;;5060783;28;20021;-79
2022/12/03 14:39:43;;;;;;;12.02;6.60;;;;;;;;;;5060414;28;20028;-79
2022/12/03 14:42:15;;;;;;;12.65;6.57;;;;;;;;;;5061295;28;20072;-77
2022/12/03 14:44:42;;;;;;;13.07;6.25;;;;;;;;;;5059409;28;20096;-78
2022/12/03 14:47:08;;;;;;;15.80;8.65;;;;;;;;;;5058364;28;20098;-79
2022/12/03 14:49:34;;;;;;;20.08;10.50;;;;;;;;;;5060828;28;20032;-77
2022/12/03 14:51:59;;;;;;;14.57;8.23;;;;;;;;;;5060443;28;20055;-77
2022/12/03 14:54:25;;;;;;;13.57;7.05;;;;;;;;;;5060653;28;20029;-79
2022/12/03 14:56:51;;;;;;;14.40;8.20;;;;;;;;;;5060687;28;20029;-77